Impacts METAR Board INFO
IDs:

KPHL - Philadelphia Intl, PA, US

Updated at: 1857 UTC 11 Dec 2017
Potential Impact None Slight Moderate High
Time11/06Z 11/07Z 11/08Z 11/09Z 11/10Z 11/11Z 11/12Z 11/13Z 11/14Z 11/15Z 11/16Z 11/17Z 11/18Z
VIS10 10 7 10 10 10 10 10 10 10 10 10 10
CIG95 70 33 110 65 90 60 55 55 -- -- 48 --
CoverOVCOVCOVCOVCOVCOVCOVCOVCBKNFEWFEWBKNSCT
FltCatVFRVFRVFRVFRVFRVFRVFRVFRVFRVFRVFRVFRVFR
WX-----SN--------------------
WDir230240270190190210210240260280280290250
WSpd8 4 10 5 8 5 7 7 10 9 12 9 12
WGst-- -- -- -- -- -- -- -- -- -- -- -- --
Raw hourly METARs
KPHL 110554Z 23008KT 10SM BKN095 OVC110 02/M03 A3004 RMK AO2 SLP173 T00171028 10028 20017 58002 $
KPHL 110654Z 24004KT 10SM BKN070 OVC090 02/M02 A3003 RMK AO2 SLP169 T00171022 $
KPHL 110801Z 27010KT 7SM -SN BKN033 OVC045 02/M03 A3005 RMK AO2 SNB0756 P0000 T00171033 $
KPHL 110854Z 19005KT 10SM FEW055 BKN110 OVC150 01/M02 A3003 RMK AO2 SNB0756E33 SLP169 P0000 60000 T00111022 57004 $
KPHL 110954Z 19008KT 10SM FEW045 BKN065 OVC080 01/M02 A3003 RMK AO2 SLP167 T00111022 $
KPHL 111054Z 21005KT 10SM SCT065 BKN090 OVC110 01/M02 A3004 RMK AO2 SLP173 T00111017 $
KPHL 111154Z 21007KT 10SM BKN060 OVC090 02/M02 A3005 RMK AO2 SLP175 60000 T00171017 10028 20011 53005 $
KPHL 111254Z 24007KT 10SM OVC055 02/M02 A3006 RMK AO2 SLP179 T00171017 $
KPHL 111354Z 26010KT 10SM BKN055 03/M04 A3007 RMK AO2 SLP182 T00281039
KPHL 111454Z 28009KT 10SM FEW055 04/M05 A3008 RMK AO2 SLP184 T00391050 51009
KPHL 111554Z 28012KT 10SM FEW042 FEW055 05/M06 A3008 RMK AO2 SLP186 T00501056
KPHL 111654Z 29009KT 10SM BKN048 05/M06 A3005 RMK AO2 SLP176 T00501061
KPHL 111754Z 25012KT 10SM SCT050 SCT260 05/M06 A3003 RMK AO2 SLP168 T00501061 10056 20017 58016